CheckWX is a tool to help pilots better visualize weather data.  It is not intended as a substitute for an official pre-flight weather briefing.

13:02:55 UTC

FBMN METAR
Maun Airport
Maun, Botswana
Current

1 hour ago

FBMN 221200Z 05006KT CAVOK 32/15 Q1018
Observed
Feb-22 @ 12:00 UTC
Wind
  • 050° at 6 KTS
Visibility
10,000+ meters
Flight Rules
VFR
Cloud Levels
  • Clear skies
Temperature
32°C / 90°F
Dewpoint
15°C / 59°F
Humidity
36%
Altimeter
30.06" Hg
Pressure
1017.92 hPa
Previous

2 hours ago

FBMN 221100Z 09005KT CAVOK 32/15 Q1019
Observed
Feb-22 @ 11:00 UTC
Wind
  • 090° at 5 KTS
Visibility
10,000+ meters
Flight Rules
VFR
Cloud Levels
  • Clear skies
Temperature
32°C / 90°F
Dewpoint
15°C / 59°F
Humidity
36%
Altimeter
30.09" Hg
Pressure
1018.92 hPa
Previous

4 hours ago

FBMN 220900Z 08009KT CAVOK 30/17 Q1021
Observed
Feb-22 @ 09:00 UTC
Wind
  • 080° at 9 KTS
Visibility
10,000+ meters
Flight Rules
VFR
Cloud Levels
  • Clear skies
Temperature
30°C / 86°F
Dewpoint
17°C / 63°F
Humidity
46%
Altimeter
30.15" Hg
Pressure
1020.92 hPa